Time;durP1;ratioP1;P1;durP2;ratioP2;P2;SDS_P1;SDS_P2;PMS_P1;PMS_P2;Temp;Humidity;BMP_temperature;BMP_pressure;BME280_temperature;BME280_humidity;BME280_pressure;Samples;Min_cycle;Max_cycle;Signal;HPM_P1;HPM_P2
2022/01/23 00:01:08;;;;;;;15.90;10.80;;;3.30;99.90;;;;;;5039930;28;20186;-89
2022/01/23 00:03:34;;;;;;;17.40;10.63;;;3.30;99.90;;;;;;5036423;28;20269;-89
2022/01/23 00:06:02;;;;;;;15.17;9.73;;;3.30;99.90;;;;;;5019854;28;20239;-89
2022/01/23 00:08:28;;;;;;;16.27;10.70;;;3.30;99.90;;;;;;5035998;28;20224;-89
2022/01/23 00:10:55;;;;;;;17.17;10.37;;;3.30;99.90;;;;;;5019772;28;20178;-89
2022/01/23 00:13:32;;;;;;;17.47;10.40;;;3.30;99.90;;;;;;5019689;28;20217;-89
2022/01/23 00:18:42;;;;;;;17.93;11.07;;;3.30;99.90;;;;;;5036053;28;20229;-89
2022/01/23 00:21:08;;;;;;;16.47;10.43;;;3.20;99.90;;;;;;5019382;28;20226;-89
2022/01/23 00:31:50;;;;;;;18.33;12.80;;;3.20;99.90;;;;;;5035652;28;20756;-89
2022/01/23 00:34:17;;;;;;;20.90;13.00;;;3.30;99.90;;;;;;5031451;28;20210;-89
2022/01/23 00:36:43;;;;;;;24.53;14.83;;;3.20;99.90;;;;;;5052309;28;20182;-89
2022/01/23 00:39:09;;;;;;;20.20;12.60;;;3.20;99.90;;;;;;5035670;28;20182;-89
2022/01/23 00:41:35;;;;;;;19.10;11.40;;;3.20;99.90;;;;;;5052509;28;20202;-89
2022/01/23 00:44:02;;;;;;;17.57;11.63;;;3.20;99.90;;;;;;5052065;28;20186;-89
2022/01/23 00:46:34;;;;;;;17.73;11.33;;;3.20;99.90;;;;;;5052108;28;20186;-89
2022/01/23 00:51:37;;;;;;;16.87;9.87;;;3.20;99.90;;;;;;5035582;28;20220;-89
2022/01/23 00:54:06;;;;;;;17.57;11.37;;;3.20;99.90;;;;;;5038106;28;20214;-89
2022/01/23 00:56:35;;;;;;;20.03;12.13;;;3.20;99.90;;;;;;5038710;28;20171;-89
2022/01/23 00:59:03;;;;;;;22.80;14.10;;;3.20;99.90;;;;;;5038369;28;20206;-88
2022/01/23 01:01:30;;;;;;;22.57;13.83;;;3.20;99.90;;;;;;5034551;28;20289;-88
2022/01/23 01:04:00;;;;;;;20.60;13.17;;;3.20;99.90;;;;;;5054503;28;20224;-88
2022/01/23 01:06:26;;;;;;;21.13;13.00;;;3.20;99.90;;;;;;5036555;28;20177;-88
2022/01/23 01:08:55;;;;;;;22.00;12.90;;;3.20;99.90;;;;;;5035287;28;20231;-88
2022/01/23 01:35:22;;;;;;;24.17;14.17;;;3.20;99.90;;;;;;5051590;28;20209;-87
2022/01/23 01:37:48;;;;;;;23.27;13.43;;;3.20;99.90;;;;;;5034920;28;20185;-89
2022/01/23 01:40:14;;;;;;;22.60;14.47;;;3.20;99.90;;;;;;5034676;28;20174;-89
2022/01/23 01:42:41;;;;;;;21.80;12.37;;;3.20;99.90;;;;;;5034999;28;20198;-89
2022/01/23 01:45:08;;;;;;;22.83;12.87;;;3.20;99.90;;;;;;5034957;28;20189;-88
2022/01/23 01:47:59;;;;;;;23.90;13.77;;;3.20;99.90;;;;;;5037589;28;20178;-89
2022/01/23 01:50:25;;;;;;;23.63;14.60;;;3.20;99.90;;;;;;5035087;28;20347;-89
2022/01/23 01:52:52;;;;;;;25.03;14.03;;;3.20;99.90;;;;;;5034444;28;20197;-88
2022/01/23 01:55:25;;;;;;;20.10;12.03;;;3.20;99.90;;;;;;5034919;28;20209;-88
2022/01/23 01:58:02;;;;;;;22.33;12.60;;;3.20;99.90;;;;;;5035256;28;20178;-88
2022/01/23 02:08:27;;;;;;;20.77;12.30;;;3.20;99.90;;;;;;5050733;28;20178;-88
2022/01/23 02:11:01;;;;;;;19.23;12.17;;;3.20;99.90;;;;;;5034538;28;20174;-89
2022/01/23 02:16:33;;;;;;;20.40;12.20;;;3.10;99.90;;;;;;5050938;28;20181;-89
2022/01/23 02:51:52;;;;;;;36.80;19.97;;;3.00;99.90;;;;;;5030452;28;20199;-89
2022/01/23 02:56:49;;;;;;;29.23;18.07;;;3.00;99.90;;;;;;5031086;28;20243;-88
2022/01/23 02:59:23;;;;;;;30.77;17.43;;;3.00;99.90;;;;;;5014127;28;20281;-88
2022/01/23 03:05:00;;;;;;;26.77;15.90;;;3.00;99.90;;;;;;5033231;28;20181;-88
2022/01/23 03:10:06;;;;;;;26.83;15.93;;;3.10;99.90;;;;;;5031657;28;20178;-88
2022/01/23 03:26:17;;;;;;;16.97;10.47;;;2.80;99.90;;;;;;5029786;28;20182;-88
2022/01/23 03:31:33;;;;;;;20.20;11.53;;;2.80;99.90;;;;;;5030172;28;20206;-88
2022/01/23 03:34:00;;;;;;;18.33;10.70;;;2.80;99.90;;;;;;5019852;28;20210;-89
2022/01/23 03:36:26;;;;;;;19.83;10.37;;;2.80;99.90;;;;;;5013191;28;20174;-88
2022/01/23 03:38:52;;;;;;;17.97;11.13;;;2.80;99.90;;;;;;5013299;28;20202;-88
2022/01/23 03:41:18;;;;;;;18.13;10.53;;;2.80;99.90;;;;;;5012924;28;20198;-88
2022/01/23 03:43:44;;;;;;;19.20;11.63;;;2.70;99.90;;;;;;5013722;28;20183;-88
2022/01/23 03:51:14;;;;;;;20.80;12.30;;;2.70;99.90;;;;;;5029619;28;20182;-88
2022/01/23 03:53:44;;;;;;;19.43;11.10;;;2.70;99.90;;;;;;5013316;28;20284;-89
2022/01/23 03:56:10;;;;;;;18.80;11.17;;;2.70;99.90;;;;;;5029984;28;20266;-88
2022/01/23 03:58:39;;;;;;;22.10;12.73;;;2.70;99.90;;;;;;5013040;28;20189;-88
2022/01/23 04:01:09;;;;;;;19.57;12.00;;;2.70;99.90;;;;;;5013485;28;20205;-89
2022/01/23 04:03:37;;;;;;;18.17;11.33;;;2.70;99.90;;;;;;5019689;28;20562;-88
2022/01/23 04:06:05;;;;;;;22.43;12.33;;;2.70;99.90;;;;;;5045700;28;20236;-88
2022/01/23 04:08:31;;;;;;;19.30;11.40;;;2.70;99.90;;;;;;5045559;28;20269;-88
2022/01/23 04:10:58;;;;;;;21.10;12.43;;;2.80;99.90;;;;;;5045485;28;20281;-88
2022/01/23 04:13:35;;;;;;;20.90;11.80;;;2.80;99.90;;;;;;5045882;28;20187;-88
2022/01/23 04:19:10;;;;;;;19.83;11.93;;;2.90;99.90;;;;;;5028933;28;20270;-89
2022/01/23 04:45:51;;;;;;;19.87;11.30;;;2.90;99.90;;;;;;5052398;28;20170;-88
2022/01/23 05:04:48;;;;;;;26.50;15.33;;;2.90;99.90;;;;;;5030481;28;20187;-89
2022/01/23 05:07:45;;;;;;;26.80;15.00;;;2.90;99.90;;;;;;5024174;28;20271;-89
2022/01/23 05:10:14;;;;;;;22.63;13.00;;;2.90;99.90;;;;;;5032386;28;20193;-89
2022/01/23 05:12:48;;;;;;;23.77;12.63;;;2.90;99.90;;;;;;5016798;28;20208;-89
2022/01/23 05:15:15;;;;;;;24.47;13.63;;;2.80;99.90;;;;;;5015796;28;20211;-89
2022/01/23 05:17:41;;;;;;;24.73;14.27;;;2.80;99.90;;;;;;5015438;28;20175;-89
2022/01/23 05:20:08;;;;;;;24.40;14.60;;;2.80;99.90;;;;;;5015651;28;20174;-89
2022/01/23 05:23:07;;;;;;;20.47;12.63;;;2.80;99.90;;;;;;5015642;28;20277;-89
2022/01/23 05:25:29;;;;;;;23.90;13.87;;;2.80;99.90;;;;;;5029573;28;20209;-89
2022/01/23 05:27:55;;;;;;;25.70;13.60;;;2.80;99.90;;;;;;5015067;28;20680;-89
2022/01/23 05:30:22;;;;;;;21.13;12.97;;;2.80;99.90;;;;;;5015735;28;20213;-88
2022/01/23 05:32:50;;;;;;;25.40;14.20;;;2.80;99.90;;;;;;5019126;28;20303;-89
2022/01/23 05:35:18;;;;;;;22.67;12.77;;;2.80;99.90;;;;;;5034655;28;20290;-89
2022/01/23 05:37:44;;;;;;;21.03;12.00;;;2.80;99.90;;;;;;5035216;28;20174;-88
2022/01/23 05:40:16;;;;;;;27.03;12.87;;;2.70;99.90;;;;;;5051584;28;20181;-89
2022/01/23 05:42:44;;;;;;;21.77;12.93;;;2.70;99.90;;;;;;5035582;28;20194;-89
2022/01/23 05:45:11;;;;;;;24.07;12.20;;;2.70;99.90;;;;;;5034880;28;20319;-89
2022/01/23 05:48:09;;;;;;;20.43;11.87;;;2.70;99.90;;;;;;5029661;28;20249;-89
2022/01/23 05:50:56;;;;;;;22.33;12.33;;;2.70;99.90;;;;;;5037467;28;20185;-89
2022/01/23 05:53:25;;;;;;;20.60;12.23;;;2.60;99.90;;;;;;5051407;28;20231;-88
2022/01/23 05:56:09;;;;;;;21.57;12.03;;;2.60;99.90;;;;;;5051705;28;20189;-89
2022/01/23 05:58:56;;;;;;;22.67;11.83;;;2.70;99.90;;;;;;5050876;28;20236;-89
2022/01/23 06:01:29;;;;;;;21.17;12.40;;;2.60;99.90;;;;;;5035459;28;20194;-89
2022/01/23 06:04:04;;;;;;;22.57;12.13;;;2.60;99.90;;;;;;5035719;28;20296;-88
2022/01/23 06:06:49;;;;;;;21.33;11.83;;;2.60;99.90;;;;;;5051390;28;20196;-89
2022/01/23 06:09:19;;;;;;;21.33;12.63;;;2.50;99.90;;;;;;5034587;28;20186;-89
2022/01/23 06:11:45;;;;;;;22.30;13.10;;;2.50;99.90;;;;;;5034681;28;20205;-88
2022/01/23 06:14:11;;;;;;;22.63;12.93;;;2.50;99.90;;;;;;5034261;28;20202;-89
2022/01/23 06:16:40;;;;;;;24.50;13.10;;;2.50;99.90;;;;;;5034642;28;20174;-88
2022/01/23 06:19:36;;;;;;;25.97;13.27;;;2.50;99.90;;;;;;5019639;28;20179;-89
2022/01/23 06:22:21;;;;;;;25.57;12.83;;;2.50;99.90;;;;;;5051496;28;20204;-89
2022/01/23 06:25:08;;;;;;;21.60;12.20;;;2.50;99.90;;;;;;5037253;28;20178;-88
2022/01/23 06:27:34;;;;;;;22.20;12.67;;;2.50;99.90;;;;;;5051982;28;20197;-89
2022/01/23 06:30:01;;;;;;;25.03;12.97;;;2.50;99.90;;;;;;5035603;28;20177;-89
2022/01/23 06:32:27;;;;;;;21.13;11.90;;;2.50;99.90;;;;;;5035450;28;20198;-89
2022/01/23 06:34:53;;;;;;;23.57;12.93;;;2.50;99.90;;;;;;5032632;28;20203;-89
2022/01/23 06:37:19;;;;;;;22.83;13.03;;;2.50;99.90;;;;;;5015595;28;20183;-89
2022/01/23 06:39:45;;;;;;;24.17;14.63;;;2.60;99.90;;;;;;5014226;28;20185;-89
2022/01/23 06:42:14;;;;;;;23.90;14.53;;;2.50;99.90;;;;;;5014368;28;20294;-89
2022/01/23 06:45:00;;;;;;;57.83;26.37;;;2.50;99.90;;;;;;5030740;28;20197;-89
2022/01/23 06:47:26;;;;;;;48.10;23.13;;;2.50;99.90;;;;;;5013561;28;20185;-89
2022/01/23 06:49:52;;;;;;;49.37;23.67;;;2.50;99.90;;;;;;5014110;28;20183;-89
2022/01/23 06:52:18;;;;;;;36.93;19.10;;;2.50;99.90;;;;;;5013379;28;20289;-88
2022/01/23 06:54:50;;;;;;;26.17;15.13;;;2.50;99.90;;;;;;5014073;28;20210;-89
2022/01/23 06:57:16;;;;;;;25.00;13.00;;;2.50;99.90;;;;;;5013892;28;20182;-89
2022/01/23 06:59:43;;;;;;;27.37;14.67;;;2.50;99.90;;;;;;5013668;28;20241;-89
2022/01/23 07:02:39;;;;;;;24.30;14.10;;;2.50;99.90;;;;;;5032848;28;20195;-88
2022/01/23 07:05:28;;;;;;;24.40;13.23;;;2.50;99.90;;;;;;5037731;28;20178;-88
2022/01/23 07:08:10;;;;;;;21.97;12.13;;;2.50;99.90;;;;;;5027736;28;20174;-89
2022/01/23 07:10:49;;;;;;;21.73;13.20;;;2.50;99.90;;;;;;5034388;28;20174;-89
2022/01/23 07:13:44;;;;;;;21.50;12.80;;;2.50;99.90;;;;;;5040728;28;20213;-89
2022/01/23 07:16:29;;;;;;;22.97;11.97;;;2.50;99.90;;;;;;5051593;28;20165;-88
2022/01/23 07:19:14;;;;;;;24.23;13.83;;;2.50;99.90;;;;;;5037996;28;20185;-89
2022/01/23 07:21:48;;;;;;;22.63;12.60;;;2.50;99.90;;;;;;5036546;28;20196;-89
2022/01/23 07:24:14;;;;;;;25.47;14.00;;;2.50;99.90;;;;;;5032108;28;20224;-89
2022/01/23 07:26:41;;;;;;;23.40;13.23;;;2.40;99.90;;;;;;5031810;28;20186;-89
2022/01/23 07:29:08;;;;;;;27.80;13.47;;;2.50;99.90;;;;;;5032510;28;20723;-89
2022/01/23 07:34:05;;;;;;;21.90;12.83;;;2.50;99.90;;;;;;5035375;28;20214;-89
2022/01/23 07:36:32;;;;;;;23.77;13.60;;;2.50;99.90;;;;;;5012768;28;20183;-88
2022/01/23 07:38:59;;;;;;;24.30;13.20;;;2.50;99.90;;;;;;5013343;28;20197;-88
2022/01/23 07:41:34;;;;;;;23.30;12.83;;;2.50;99.90;;;;;;5014436;28;20221;-88
2022/01/23 07:44:15;;;;;;;23.63;13.23;;;2.50;99.90;;;;;;5017102;28;20249;-89
2022/01/23 07:47:06;;;;;;;24.37;13.20;;;2.50;99.90;;;;;;5022125;28;20187;-88
2022/01/23 07:49:38;;;;;;;24.97;14.40;;;2.50;99.90;;;;;;5031887;28;20174;-89
2022/01/23 07:52:07;;;;;;;30.60;17.63;;;2.50;99.90;;;;;;5031728;28;20249;-88
2022/01/23 07:54:57;;;;;;;27.90;15.73;;;2.50;99.90;;;;;;5031272;28;20206;-89
2022/01/23 07:57:34;;;;;;;23.23;14.80;;;2.50;99.90;;;;;;5050247;28;20178;-89
2022/01/23 08:00:23;;;;;;;27.30;16.10;;;2.50;99.90;;;;;;5032968;28;20166;-88
2022/01/23 08:02:49;;;;;;;26.37;15.20;;;2.50;99.90;;;;;;5053816;28;20197;-88
2022/01/23 08:05:24;;;;;;;26.10;14.70;;;2.60;99.90;;;;;;5056319;28;20178;-88
2022/01/23 08:08:13;;;;;;;26.07;15.13;;;2.60;99.90;;;;;;5031105;28;20179;-88
2022/01/23 08:10:59;;;;;;;31.03;17.97;;;2.60;99.90;;;;;;5037459;28;20186;-88
2022/01/23 08:13:25;;;;;;;36.73;21.13;;;2.60;99.90;;;;;;5031017;28;20263;-88
2022/01/23 08:15:51;;;;;;;34.43;19.87;;;2.60;99.90;;;;;;5020685;28;20324;-88
2022/01/23 08:18:17;;;;;;;28.10;16.20;;;2.60;99.90;;;;;;5034785;28;20174;-89
2022/01/23 08:20:43;;;;;;;35.17;17.57;;;2.70;99.90;;;;;;5033580;28;20171;-89
2022/01/23 08:23:10;;;;;;;27.03;16.20;;;2.70;99.90;;;;;;5051846;28;20202;-89
2022/01/23 08:25:36;;;;;;;29.60;16.47;;;2.70;99.90;;;;;;5051988;28;20183;-89
2022/01/23 08:28:02;;;;;;;28.67;14.50;;;2.70;99.90;;;;;;5038182;28;20189;-89
2022/01/23 08:30:27;;;;;;;28.60;15.93;;;2.80;99.90;;;;;;5038576;28;20178;-89
2022/01/23 08:32:53;;;;;;;29.10;15.50;;;2.80;99.90;;;;;;5038705;28;20205;-89
2022/01/23 08:35:20;;;;;;;29.77;16.00;;;2.80;99.90;;;;;;5020288;28;20206;-88
2022/01/23 08:37:46;;;;;;;27.70;15.83;;;2.80;99.90;;;;;;5018114;28;20233;-88
2022/01/23 08:40:22;;;;;;;24.50;13.73;;;2.80;99.90;;;;;;5018925;28;20269;-88
2022/01/23 08:42:51;;;;;;;22.97;12.93;;;2.70;99.90;;;;;;5039946;28;20230;-88
2022/01/23 08:45:18;;;;;;;26.67;14.90;;;2.70;99.90;;;;;;5018759;28;20190;-89
2022/01/23 08:47:44;;;;;;;26.77;13.63;;;2.80;99.90;;;;;;5019925;28;20261;-88
2022/01/23 08:50:23;;;;;;;22.37;13.80;;;2.80;99.90;;;;;;5027407;28;20270;-88
2022/01/23 08:52:49;;;;;;;25.30;14.40;;;2.80;99.90;;;;;;5045967;28;20201;-88
2022/01/23 08:55:15;;;;;;;25.13;13.63;;;2.80;99.90;;;;;;5035537;28;20195;-88
2022/01/23 08:57:41;;;;;;;21.90;13.17;;;2.90;99.90;;;;;;5026424;28;20257;-88
2022/01/23 09:00:08;;;;;;;24.73;13.57;;;2.90;99.90;;;;;;5028458;28;20170;-88
2022/01/23 09:02:34;;;;;;;25.40;14.80;;;2.90;99.90;;;;;;5026197;28;20232;-88
2022/01/23 09:05:00;;;;;;;28.57;15.10;;;3.00;99.90;;;;;;5030639;28;20244;-88
2022/01/23 09:07:26;;;;;;;27.73;14.80;;;3.00;99.90;;;;;;5041971;28;20186;-88
2022/01/23 09:10:01;;;;;;;24.87;14.43;;;3.00;99.90;;;;;;5027545;28;20170;-88
2022/01/23 09:15:05;;;;;;;23.83;14.33;;;3.10;99.90;;;;;;5047653;28;20267;-88
2022/01/23 09:17:31;;;;;;;25.47;13.83;;;3.10;99.90;;;;;;5045893;28;20184;-88
2022/01/23 09:19:57;;;;;;;23.70;13.83;;;3.10;99.90;;;;;;5048429;28;20170;-89
2022/01/23 09:22:24;;;;;;;40.10;21.93;;;3.10;99.90;;;;;;5037680;28;20193;-89
2022/01/23 09:24:50;;;;;;;31.87;17.33;;;3.20;99.90;;;;;;5024007;28;20183;-88
2022/01/23 09:27:19;;;;;;;31.17;16.33;;;3.20;99.90;;;;;;5046691;28;20193;-88
2022/01/23 09:29:51;;;;;;;28.57;15.23;;;3.20;99.90;;;;;;5042313;28;20194;-88
2022/01/23 09:32:20;;;;;;;29.27;15.57;;;3.30;99.90;;;;;;5051501;28;20252;-88
2022/01/23 09:34:46;;;;;;;26.47;14.50;;;3.30;99.90;;;;;;5015312;28;20212;-89
2022/01/23 09:37:14;;;;;;;26.97;15.00;;;3.30;99.90;;;;;;5014912;28;20186;-90
2022/01/23 09:40:10;;;;;;;27.43;14.10;;;3.30;99.90;;;;;;5013435;28;20177;-89
2022/01/23 09:42:43;;;;;;;20.43;12.37;;;3.30;99.90;;;;;;5034024;28;20199;-89
2022/01/23 09:45:11;;;;;;;22.83;13.50;;;3.30;99.90;;;;;;5017565;28;20202;-89
2022/01/23 09:47:39;;;;;;;25.07;14.10;;;3.40;99.90;;;;;;5017097;28;20189;-89
2022/01/23 09:50:08;;;;;;;27.03;14.80;;;3.40;99.90;;;;;;5017028;28;20175;-90
2022/01/23 09:52:36;;;;;;;29.70;14.17;;;3.40;99.90;;;;;;5017316;28;20195;-90
2022/01/23 09:55:08;;;;;;;23.90;13.80;;;3.50;99.90;;;;;;5017532;28;20207;-89
2022/01/23 09:57:42;;;;;;;24.83;14.47;;;3.50;99.90;;;;;;5019376;28;20162;-89
2022/01/23 10:00:12;;;;;;;23.17;14.00;;;3.60;99.90;;;;;;5017588;28;20166;-89
2022/01/23 10:02:42;;;;;;;23.37;13.60;;;3.60;99.90;;;;;;5036592;28;20249;-90
2022/01/23 10:05:08;;;;;;;27.00;14.43;;;3.60;99.90;;;;;;5036949;28;20174;-89
2022/01/23 10:07:42;;;;;;;24.17;13.50;;;3.70;99.90;;;;;;5036816;28;20182;-89
2022/01/23 10:10:17;;;;;;;25.07;14.93;;;3.70;99.90;;;;;;5036109;28;20177;-90
2022/01/23 10:12:50;;;;;;;23.90;13.70;;;3.70;99.90;;;;;;5036672;28;20201;-89
2022/01/23 10:15:17;;;;;;;28.17;14.57;;;3.70;99.90;;;;;;5036565;28;20235;-89
2022/01/23 10:17:43;;;;;;;24.93;14.03;;;3.80;99.90;;;;;;5036525;28;20218;-89
2022/01/23 10:20:11;;;;;;;28.30;16.27;;;3.80;99.90;;;;;;5036789;28;20267;-89
2022/01/23 10:22:40;;;;;;;21.80;13.40;;;3.90;99.90;;;;;;5036418;28;20200;-90
2022/01/23 10:25:10;;;;;;;22.03;13.57;;;4.00;99.90;;;;;;5036093;28;20631;-90
2022/01/23 10:28:04;;;;;;;23.63;13.33;;;4.00;99.90;;;;;;5036152;28;20277;-89
2022/01/23 10:30:53;;;;;;;21.13;12.97;;;4.00;99.90;;;;;;5036409;28;20190;-89
2022/01/23 10:33:28;;;;;;;24.80;13.87;;;4.00;99.90;;;;;;5028589;28;20211;-90
2022/01/23 10:36:09;;;;;;;28.87;15.50;;;4.00;99.90;;;;;;5032943;28;20201;-90
2022/01/23 10:39:00;;;;;;;21.20;13.47;;;4.10;99.90;;;;;;5016748;28;20174;-88
2022/01/23 10:47:52;;;;;;;18.97;12.03;;;4.20;99.90;;;;;;5033015;28;20179;-88
2022/01/23 10:50:00;;;;;;;19.13;11.70;;;4.30;99.90;;;;;;5032259;28;20190;-88
2022/01/23 10:52:32;;;;;;;18.47;12.70;;;4.30;99.90;;;;;;5016601;28;20210;-88
2022/01/23 10:55:19;;;;;;;20.07;12.80;;;4.30;99.90;;;;;;5016237;28;20206;-88
2022/01/23 10:57:51;;;;;;;18.57;12.03;;;4.40;99.90;;;;;;5008832;28;20191;-88
2022/01/23 11:00:32;;;;;;;19.10;12.47;;;4.50;99.90;;;;;;5016580;28;20178;-88
2022/01/23 11:07:12;;;;;;;17.87;10.73;;;4.50;99.90;;;;;;5034493;28;20219;-89
2022/01/23 11:09:38;;;;;;;16.70;10.93;;;4.60;99.90;;;;;;5015956;28;20175;-91
2022/01/23 11:18:15;;;;;;;31.33;18.47;;;4.70;99.90;;;;;;5032255;28;20195;-90
2022/01/23 11:20:46;;;;;;;23.37;13.07;;;4.70;99.90;;;;;;5015860;28;20195;-90
2022/01/23 11:23:15;;;;;;;17.53;10.97;;;4.80;99.90;;;;;;5016010;28;20295;-90
2022/01/23 11:26:06;;;;;;;17.80;11.10;;;4.80;99.90;;;;;;5016023;28;20192;-90
2022/01/23 11:28:40;;;;;;;15.70;10.30;;;4.90;99.90;;;;;;5015669;28;20199;-90
2022/01/23 11:31:09;;;;;;;17.43;11.10;;;4.90;99.90;;;;;;5015924;28;20253;-90
2022/01/23 11:34:05;;;;;;;17.67;11.67;;;4.90;99.90;;;;;;5014850;28;20195;-90
2022/01/23 11:36:31;;;;;;;21.00;12.37;;;4.90;99.90;;;;;;5015928;28;20175;-89
2022/01/23 11:39:09;;;;;;;18.10;11.50;;;4.80;99.90;;;;;;5015868;28;20180;-90
2022/01/23 11:56:30;;;;;;;15.23;10.63;;;5.20;99.90;;;;;;5052608;28;20294;-89
2022/01/23 11:59:44;;;;;;;16.90;10.90;;;5.30;99.90;;;;;;5035459;28;20192;-90
2022/01/23 12:02:11;;;;;;;17.70;11.17;;;5.30;99.90;;;;;;5013394;28;20235;-89
2022/01/23 12:04:38;;;;;;;19.50;12.73;;;5.40;99.90;;;;;;5035402;28;20184;-90
2022/01/23 12:07:11;;;;;;;19.30;12.87;;;5.40;99.90;;;;;;5052709;28;20181;-89
2022/01/23 12:10:00;;;;;;;18.47;12.17;;;5.50;99.90;;;;;;5035446;28;20224;-89
2022/01/23 12:18:33;;;;;;;17.93;11.30;;;5.50;99.90;;;;;;5039750;28;20167;-88
2022/01/23 12:21:00;;;;;;;22.17;12.53;;;5.50;99.90;;;;;;5014307;28;20181;-90
2022/01/23 12:23:26;;;;;;;19.20;11.77;;;5.50;99.90;;;;;;5025019;28;20179;-90
2022/01/23 12:25:55;;;;;;;19.13;12.10;;;5.60;99.90;;;;;;5037165;28;20268;-89
2022/01/23 12:28:28;;;;;;;18.23;12.13;;;5.50;99.90;;;;;;5042054;28;20194;-89
2022/01/23 12:31:12;;;;;;;18.60;11.73;;;5.50;99.90;;;;;;5038580;28;20211;-89
2022/01/23 12:33:42;;;;;;;18.13;11.97;;;5.60;99.90;;;;;;5026035;28;20188;-90
2022/01/23 12:36:21;;;;;;;19.87;11.63;;;5.50;99.90;;;;;;5028307;28;20179;-89
2022/01/23 12:38:53;;;;;;;16.70;11.30;;;5.50;99.90;;;;;;5020508;28;20187;-89
2022/01/23 12:41:39;;;;;;;18.77;11.57;;;5.50;99.90;;;;;;5022946;28;20263;-88
2022/01/23 12:44:34;;;;;;;20.23;12.43;;;5.50;99.90;;;;;;5051671;28;20911;-88
2022/01/23 12:47:07;;;;;;;18.33;11.37;;;5.60;99.90;;;;;;5023636;28;20657;-89
2022/01/23 12:49:45;;;;;;;17.53;11.73;;;5.60;99.90;;;;;;5034500;28;20189;-89
2022/01/23 12:52:12;;;;;;;16.33;10.73;;;5.70;99.90;;;;;;5034751;28;20278;-89
2022/01/23 12:54:47;;;;;;;18.40;11.20;;;5.70;99.90;;;;;;5035041;28;20205;-89
2022/01/23 12:57:18;;;;;;;17.93;11.47;;;5.70;99.90;;;;;;5034863;28;20189;-89
2022/01/23 12:59:53;;;;;;;18.50;11.80;;;5.80;99.90;;;;;;5035034;28;20252;-89
2022/01/23 13:02:20;;;;;;;16.53;10.67;;;5.80;99.90;;;;;;5035136;28;20206;-89
2022/01/23 13:04:50;;;;;;;13.53;9.13;;;5.80;99.90;;;;;;5035329;28;20189;-89
2022/01/23 13:07:28;;;;;;;13.57;9.63;;;5.70;99.90;;;;;;5018467;28;20182;-89
2022/01/23 13:31:49;;;;;;;12.03;7.87;;;5.70;99.90;;;;;;5033300;28;20733;-88
2022/01/23 13:34:36;;;;;;;12.77;9.10;;;5.70;99.90;;;;;;5033590;28;20267;-88
2022/01/23 13:37:14;;;;;;;9.83;6.93;;;5.70;99.90;;;;;;5037550;28;20212;-88
2022/01/23 13:39:48;;;;;;;9.97;6.93;;;5.70;99.90;;;;;;5037422;28;20259;-88
2022/01/23 13:53:20;;;;;;;4.90;4.00;;;5.70;99.90;;;;;;5034023;28;20205;-88
2022/01/23 13:58:37;;;;;;;5.67;4.60;;;5.60;99.90;;;;;;5033573;28;20209;-88
2022/01/23 14:03:54;;;;;;;5.63;4.60;;;5.70;99.90;;;;;;5039066;28;20177;-88
2022/01/23 14:06:20;;;;;;;4.77;3.67;;;5.60;99.90;;;;;;5041072;28;20202;-87
2022/01/23 14:09:09;;;;;;;5.13;4.17;;;5.60;99.90;;;;;;5042079;28;20238;-88
2022/01/23 14:11:39;;;;;;;6.53;4.57;;;5.50;99.90;;;;;;5041866;28;20227;-88
2022/01/23 14:14:29;;;;;;;5.60;4.20;;;5.50;99.90;;;;;;5040500;28;20283;-89
2022/01/23 14:17:16;;;;;;;6.87;4.83;;;5.50;99.90;;;;;;5042084;28;20273;-89
2022/01/23 14:20:16;;;;;;;7.33;5.10;;;5.50;99.90;;;;;;5015230;28;20205;-89
2022/01/23 14:22:47;;;;;;;5.83;4.10;;;5.50;99.90;;;;;;5024923;28;20209;-88
2022/01/23 14:25:26;;;;;;;7.57;5.50;;;5.50;99.90;;;;;;5032937;28;20198;-88
2022/01/23 14:28:12;;;;;;;7.20;5.00;;;5.50;99.90;;;;;;5029704;28;20199;-88
2022/01/23 14:30:49;;;;;;;9.57;5.20;;;5.40;99.90;;;;;;5042962;28;20276;-88
2022/01/23 14:33:59;;;;;;;9.07;5.20;;;5.40;99.90;;;;;;5035613;28;20214;-88
2022/01/23 14:36:28;;;;;;;8.80;5.40;;;5.40;99.90;;;;;;5038231;28;20675;-89
2022/01/23 14:39:00;;;;;;;8.17;5.00;;;5.40;99.90;;;;;;5044477;28;20193;-89
2022/01/23 14:41:35;;;;;;;10.10;6.10;;;5.40;99.90;;;;;;5054658;28;20230;-89
2022/01/23 14:44:05;;;;;;;7.07;5.03;;;5.30;99.90;;;;;;5021933;28;20267;-89
2022/01/23 14:46:33;;;;;;;6.83;5.70;;;5.30;99.90;;;;;;5037059;28;20250;-89
2022/01/23 14:49:09;;;;;;;9.33;6.10;;;5.30;99.90;;;;;;5037348;28;20541;-89
2022/01/23 14:51:37;;;;;;;9.00;5.93;;;5.30;99.90;;;;;;5032379;28;20200;-88
2022/01/23 14:54:04;;;;;;;11.23;6.97;;;5.20;99.90;;;;;;5037348;28;20236;-89
2022/01/23 14:56:37;;;;;;;14.00;8.17;;;5.20;99.90;;;;;;5044413;28;20181;-88
2022/01/23 14:59:08;;;;;;;11.27;7.33;;;5.20;99.90;;;;;;5033038;28;20188;-88
2022/01/23 15:01:37;;;;;;;11.77;7.80;;;5.20;99.90;;;;;;5028381;28;20200;-88
2022/01/23 15:04:09;;;;;;;10.40;6.00;;;5.20;99.90;;;;;;5032349;28;20194;-89
2022/01/23 15:06:36;;;;;;;7.43;5.30;;;5.20;99.90;;;;;;5032234;28;20192;-88
2022/01/23 15:09:08;;;;;;;8.43;5.47;;;5.20;99.90;;;;;;5031906;28;20181;-88
2022/01/23 15:11:36;;;;;;;10.47;5.40;;;5.10;99.90;;;;;;5048810;28;20205;-89
2022/01/23 15:14:03;;;;;;;6.90;5.07;;;5.10;99.90;;;;;;5048159;28;20247;-89
2022/01/23 15:16:29;;;;;;;7.57;5.20;;;5.10;99.90;;;;;;5044299;28;20201;-89
2022/01/23 15:18:55;;;;;;;6.23;4.87;;;5.00;99.90;;;;;;5034499;28;20178;-88
2022/01/23 15:21:21;;;;;;;9.03;6.13;;;5.00;99.90;;;;;;5047291;28;20210;-88
2022/01/23 15:23:47;;;;;;;8.23;5.60;;;5.00;99.90;;;;;;5030990;28;20634;-88
2022/01/23 15:26:14;;;;;;;8.63;5.97;;;5.00;99.90;;;;;;5047279;28;20653;-88
2022/01/23 15:28:41;;;;;;;8.73;5.20;;;5.00;99.90;;;;;;5032451;28;20287;-88
2022/01/23 15:31:10;;;;;;;9.33;5.40;;;5.00;99.90;;;;;;5043371;28;20181;-88
2022/01/23 15:33:37;;;;;;;7.73;5.20;;;5.00;99.90;;;;;;5048410;28;20188;-89
2022/01/23 15:36:07;;;;;;;9.03;5.37;;;4.90;99.90;;;;;;5037106;28;20216;-89
2022/01/23 15:38:42;;;;;;;6.67;5.30;;;4.90;99.90;;;;;;5042118;28;20229;-89
2022/01/23 15:41:12;;;;;;;7.67;5.37;;;4.90;99.90;;;;;;5027161;28;20188;-88
2022/01/23 15:43:38;;;;;;;7.77;4.93;;;4.80;99.90;;;;;;5039080;28;20183;-88
2022/01/23 15:46:06;;;;;;;9.13;4.60;;;4.80;99.90;;;;;;5029794;28;20218;-88
2022/01/23 15:48:33;;;;;;;7.27;4.83;;;4.80;99.90;;;;;;5029880;28;20190;-89
2022/01/23 15:50:59;;;;;;;9.73;4.80;;;4.80;99.90;;;;;;5039287;28;20181;-89
2022/01/23 15:53:26;;;;;;;6.70;5.47;;;4.80;99.90;;;;;;5043954;28;20261;-89
2022/01/23 15:55:52;;;;;;;8.60;5.70;;;4.80;99.90;;;;;;5044304;28;20219;-88
2022/01/23 15:58:19;;;;;;;9.00;5.97;;;4.80;99.90;;;;;;5025474;28;20263;-90
2022/01/23 16:00:46;;;;;;;6.50;5.13;;;4.80;99.90;;;;;;5029733;28;20180;-89
2022/01/23 16:03:12;;;;;;;8.73;6.27;;;4.70;99.90;;;;;;5037172;28;20205;-89
2022/01/23 16:05:41;;;;;;;9.23;5.80;;;4.70;99.90;;;;;;5026465;28;20717;-89
2022/01/23 16:08:07;;;;;;;7.43;5.87;;;4.70;99.90;;;;;;5024476;28;20196;-90
2022/01/23 16:10:33;;;;;;;11.17;7.23;;;4.70;99.90;;;;;;5031614;28;20187;-89
2022/01/23 16:12:59;;;;;;;15.53;10.53;;;4.70;99.90;;;;;;5032358;28;20219;-89
2022/01/23 16:15:25;;;;;;;11.33;7.83;;;4.60;99.90;;;;;;5040954;28;20212;-90
2022/01/23 16:17:51;;;;;;;9.57;6.60;;;4.60;99.90;;;;;;5031187;28;20188;-90
2022/01/23 16:20:18;;;;;;;9.77;7.20;;;4.60;99.90;;;;;;5041899;28;20240;-90
2022/01/23 16:22:46;;;;;;;9.73;6.30;;;4.60;99.90;;;;;;5027703;28;20204;-89
2022/01/23 16:25:15;;;;;;;8.17;5.70;;;4.60;99.90;;;;;;5033897;28;20187;-88
2022/01/23 16:27:41;;;;;;;7.60;5.63;;;4.60;99.90;;;;;;5030841;28;20213;-89
2022/01/23 16:30:10;;;;;;;8.17;5.93;;;4.60;99.90;;;;;;5029433;28;20245;-89
2022/01/23 16:32:36;;;;;;;7.83;5.63;;;4.60;99.90;;;;;;5033722;28;20212;-89
2022/01/23 16:35:04;;;;;;;7.03;5.43;;;4.60;99.90;;;;;;5044516;28;20235;-89
2022/01/23 16:37:29;;;;;;;7.10;4.77;;;4.60;99.90;;;;;;5033328;28;20180;-90
2022/01/23 16:39:56;;;;;;;8.43;5.20;;;4.50;99.90;;;;;;5044482;28;20179;-89
2022/01/23 16:42:22;;;;;;;6.10;4.93;;;4.50;99.90;;;;;;5034010;28;20697;-89
2022/01/23 16:44:48;;;;;;;6.17;4.67;;;4.50;99.90;;;;;;5034248;28;20184;-89
2022/01/23 16:47:15;;;;;;;6.63;5.03;;;4.50;99.90;;;;;;5035046;28;20181;-89
2022/01/23 16:49:41;;;;;;;9.40;5.83;;;4.50;99.90;;;;;;5034538;28;20191;-90
2022/01/23 16:52:11;;;;;;;7.77;5.03;;;4.50;99.90;;;;;;5034587;28;20205;-89
2022/01/23 16:54:37;;;;;;;10.97;7.20;;;4.50;99.90;;;;;;5029375;28;20215;-90
2022/01/23 16:57:04;;;;;;;9.93;6.73;;;4.50;99.90;;;;;;5044087;28;20649;-83
2022/01/23 16:59:30;;;;;;;11.07;6.60;;;4.50;99.90;;;;;;5034067;28;20267;-90